sensor_id;sensor_type;location;lat;lon;timestamp;P1;durP1;ratioP1;P2;durP2;ratioP2
3274;SDS011;1649;53.672;10.064;2023-09-12T00:00:36;48.10;;;33.77;;
3274;SDS011;1649;53.672;10.064;2023-09-12T00:03:01;41.47;;;29.17;;
3274;SDS011;1649;53.672;10.064;2023-09-12T00:05:27;48.80;;;34.90;;
3274;SDS011;1649;53.672;10.064;2023-09-12T00:07:52;53.63;;;36.80;;
3274;SDS011;1649;53.672;10.064;2023-09-12T00:10:21;57.30;;;38.37;;
3274;SDS011;1649;53.672;10.064;2023-09-12T00:12:46;61.53;;;38.20;;
3274;SDS011;1649;53.672;10.064;2023-09-12T00:15:12;56.70;;;37.87;;
3274;SDS011;1649;53.672;10.064;2023-09-12T00:17:37;54.77;;;37.53;;
3274;SDS011;1649;53.672;10.064;2023-09-12T00:20:03;53.90;;;35.13;;
3274;SDS011;1649;53.672;10.064;2023-09-12T00:22:31;58.80;;;40.73;;
3274;SDS011;1649;53.672;10.064;2023-09-12T00:24:56;55.10;;;36.33;;
3274;SDS011;1649;53.672;10.064;2023-09-12T00:27:22;60.23;;;42.60;;
3274;SDS011;1649;53.672;10.064;2023-09-12T00:29:47;58.47;;;40.77;;
3274;SDS011;1649;53.672;10.064;2023-09-12T00:32:13;57.77;;;39.80;;
3274;SDS011;1649;53.672;10.064;2023-09-12T00:34:38;66.73;;;43.20;;
3274;SDS011;1649;53.672;10.064;2023-09-12T00:37:04;69.50;;;44.97;;
3274;SDS011;1649;53.672;10.064;2023-09-12T00:39:29;60.70;;;41.63;;
3274;SDS011;1649;53.672;10.064;2023-09-12T00:41:55;63.00;;;39.97;;
3274;SDS011;1649;53.672;10.064;2023-09-12T00:44:20;72.97;;;45.60;;
3274;SDS011;1649;53.672;10.064;2023-09-12T00:46:46;65.63;;;43.33;;
3274;SDS011;1649;53.672;10.064;2023-09-12T00:49:14;65.63;;;42.40;;
3274;SDS011;1649;53.672;10.064;2023-09-12T00:51:42;61.43;;;38.03;;
3274;SDS011;1649;53.672;10.064;2023-09-12T00:54:09;48.13;;;33.67;;
3274;SDS011;1649;53.672;10.064;2023-09-12T00:56:35;55.67;;;36.83;;
3274;SDS011;1649;53.672;10.064;2023-09-12T00:59:01;61.23;;;40.93;;
3274;SDS011;1649;53.672;10.064;2023-09-12T01:01:27;63.83;;;41.70;;
3274;SDS011;1649;53.672;10.064;2023-09-12T01:03:54;50.83;;;35.33;;
3274;SDS011;1649;53.672;10.064;2023-09-12T01:06:21;57.87;;;37.70;;
3274;SDS011;1649;53.672;10.064;2023-09-12T01:08:50;59.80;;;38.80;;
3274;SDS011;1649;53.672;10.064;2023-09-12T01:11:16;50.20;;;35.43;;
3274;SDS011;1649;53.672;10.064;2023-09-12T01:13:42;55.70;;;37.63;;
3274;SDS011;1649;53.672;10.064;2023-09-12T01:16:07;52.10;;;34.67;;
3274;SDS011;1649;53.672;10.064;2023-09-12T01:18:33;54.80;;;36.70;;
3274;SDS011;1649;53.672;10.064;2023-09-12T01:21:43;58.50;;;36.63;;
3274;SDS011;1649;53.672;10.064;2023-09-12T01:24:30;54.90;;;36.77;;
3274;SDS011;1649;53.672;10.064;2023-09-12T01:29:43;52.90;;;35.83;;
3274;SDS011;1649;53.672;10.064;2023-09-12T01:32:10;44.57;;;31.60;;
3274;SDS011;1649;53.672;10.064;2023-09-12T01:34:38;44.20;;;31.90;;
3274;SDS011;1649;53.672;10.064;2023-09-12T01:37:04;45.50;;;31.00;;
3274;SDS011;1649;53.672;10.064;2023-09-12T01:39:29;44.97;;;31.37;;
3274;SDS011;1649;53.672;10.064;2023-09-12T01:41:55;46.97;;;31.17;;
3274;SDS011;1649;53.672;10.064;2023-09-12T01:44:24;40.27;;;27.90;;
3274;SDS011;1649;53.672;10.064;2023-09-12T01:46:52;46.10;;;32.40;;
3274;SDS011;1649;53.672;10.064;2023-09-12T01:49:19;48.03;;;31.80;;
3274;SDS011;1649;53.672;10.064;2023-09-12T01:51:47;41.90;;;28.23;;
3274;SDS011;1649;53.672;10.064;2023-09-12T01:54:13;41.93;;;30.63;;
3274;SDS011;1649;53.672;10.064;2023-09-12T01:56:40;48.30;;;32.57;;
3274;SDS011;1649;53.672;10.064;2023-09-12T01:59:07;51.70;;;34.77;;
3274;SDS011;1649;53.672;10.064;2023-09-12T02:01:33;44.07;;;29.07;;
3274;SDS011;1649;53.672;10.064;2023-09-12T02:03:58;39.87;;;27.47;;
3274;SDS011;1649;53.672;10.064;2023-09-12T02:06:24;41.17;;;28.50;;
3274;SDS011;1649;53.672;10.064;2023-09-12T02:08:49;40.83;;;28.50;;
3274;SDS011;1649;53.672;10.064;2023-09-12T02:11:15;42.53;;;29.80;;
3274;SDS011;1649;53.672;10.064;2023-09-12T02:13:40;47.20;;;31.63;;
3274;SDS011;1649;53.672;10.064;2023-09-12T02:16:06;42.77;;;29.10;;
3274;SDS011;1649;53.672;10.064;2023-09-12T02:18:31;43.60;;;30.93;;
3274;SDS011;1649;53.672;10.064;2023-09-12T02:21:00;44.90;;;31.03;;
3274;SDS011;1649;53.672;10.064;2023-09-12T02:23:25;43.93;;;30.60;;
3274;SDS011;1649;53.672;10.064;2023-09-12T02:25:51;44.77;;;30.40;;
3274;SDS011;1649;53.672;10.064;2023-09-12T02:28:16;45.60;;;32.27;;
3274;SDS011;1649;53.672;10.064;2023-09-12T02:30:42;48.43;;;31.70;;
3274;SDS011;1649;53.672;10.064;2023-09-12T02:33:07;44.63;;;28.87;;
3274;SDS011;1649;53.672;10.064;2023-09-12T02:35:33;40.70;;;27.83;;
3274;SDS011;1649;53.672;10.064;2023-09-12T02:37:58;46.93;;;29.00;;
3274;SDS011;1649;53.672;10.064;2023-09-12T02:40:24;52.90;;;30.33;;
3274;SDS011;1649;53.672;10.064;2023-09-12T02:42:49;47.47;;;32.20;;
3274;SDS011;1649;53.672;10.064;2023-09-12T02:45:15;46.07;;;27.13;;
3274;SDS011;1649;53.672;10.064;2023-09-12T02:47:41;38.70;;;26.20;;
3274;SDS011;1649;53.672;10.064;2023-09-12T02:50:08;45.70;;;30.27;;
3274;SDS011;1649;53.672;10.064;2023-09-12T02:52:34;42.10;;;29.37;;
3274;SDS011;1649;53.672;10.064;2023-09-12T02:54:59;39.53;;;27.23;;
3274;SDS011;1649;53.672;10.064;2023-09-12T02:57:25;44.70;;;28.20;;
3274;SDS011;1649;53.672;10.064;2023-09-12T02:59:50;39.80;;;28.80;;
3274;SDS011;1649;53.672;10.064;2023-09-12T03:02:16;36.83;;;27.30;;
3274;SDS011;1649;53.672;10.064;2023-09-12T03:04:41;43.20;;;26.60;;
3274;SDS011;1649;53.672;10.064;2023-09-12T03:07:07;40.40;;;27.70;;
3274;SDS011;1649;53.672;10.064;2023-09-12T03:09:32;42.90;;;29.07;;
3274;SDS011;1649;53.672;10.064;2023-09-12T03:11:58;35.30;;;24.77;;
3274;SDS011;1649;53.672;10.064;2023-09-12T03:14:27;37.23;;;25.60;;
3274;SDS011;1649;53.672;10.064;2023-09-12T03:16:53;48.77;;;30.70;;
3274;SDS011;1649;53.672;10.064;2023-09-12T03:19:18;45.87;;;29.93;;
3274;SDS011;1649;53.672;10.064;2023-09-12T03:21:44;48.13;;;31.33;;
3274;SDS011;1649;53.672;10.064;2023-09-12T03:24:09;43.50;;;29.03;;
3274;SDS011;1649;53.672;10.064;2023-09-12T03:26:35;46.37;;;29.77;;
3274;SDS011;1649;53.672;10.064;2023-09-12T03:29:01;40.10;;;28.90;;
3274;SDS011;1649;53.672;10.064;2023-09-12T03:31:30;48.23;;;30.60;;
3274;SDS011;1649;53.672;10.064;2023-09-12T03:33:56;40.47;;;28.50;;
3274;SDS011;1649;53.672;10.064;2023-09-12T03:36:21;48.73;;;31.57;;
3274;SDS011;1649;53.672;10.064;2023-09-12T03:38:47;55.03;;;33.50;;
3274;SDS011;1649;53.672;10.064;2023-09-12T03:41:13;55.10;;;34.80;;
3274;SDS011;1649;53.672;10.064;2023-09-12T03:43:38;57.13;;;34.37;;
3274;SDS011;1649;53.672;10.064;2023-09-12T03:46:04;50.43;;;32.40;;
3274;SDS011;1649;53.672;10.064;2023-09-12T03:48:29;51.70;;;33.93;;
3274;SDS011;1649;53.672;10.064;2023-09-12T03:50:58;72.87;;;37.63;;
3274;SDS011;1649;53.672;10.064;2023-09-12T03:53:24;53.13;;;34.13;;
3274;SDS011;1649;53.672;10.064;2023-09-12T03:55:51;59.63;;;34.87;;
3274;SDS011;1649;53.672;10.064;2023-09-12T03:58:17;63.00;;;37.37;;
3274;SDS011;1649;53.672;10.064;2023-09-12T04:00:42;61.20;;;37.40;;
3274;SDS011;1649;53.672;10.064;2023-09-12T04:03:08;61.40;;;34.50;;
3274;SDS011;1649;53.672;10.064;2023-09-12T04:05:34;59.00;;;36.17;;
3274;SDS011;1649;53.672;10.064;2023-09-12T04:07:59;64.70;;;37.93;;
3274;SDS011;1649;53.672;10.064;2023-09-12T04:10:25;60.63;;;35.50;;
3274;SDS011;1649;53.672;10.064;2023-09-12T04:12:50;55.70;;;33.93;;
3274;SDS011;1649;53.672;10.064;2023-09-12T04:15:16;70.13;;;38.93;;
3274;SDS011;1649;53.672;10.064;2023-09-12T04:17:41;65.70;;;38.00;;
3274;SDS011;1649;53.672;10.064;2023-09-12T04:20:07;64.40;;;38.13;;
3274;SDS011;1649;53.672;10.064;2023-09-12T04:22:33;60.37;;;37.77;;
3274;SDS011;1649;53.672;10.064;2023-09-12T04:24:58;54.83;;;33.67;;
3274;SDS011;1649;53.672;10.064;2023-09-12T04:27:24;67.67;;;40.57;;
3274;SDS011;1649;53.672;10.064;2023-09-12T04:29:49;63.50;;;35.67;;
3274;SDS011;1649;53.672;10.064;2023-09-12T04:32:15;56.53;;;34.57;;
3274;SDS011;1649;53.672;10.064;2023-09-12T04:34:42;57.33;;;34.93;;
3274;SDS011;1649;53.672;10.064;2023-09-12T04:37:08;56.00;;;34.87;;
3274;SDS011;1649;53.672;10.064;2023-09-12T04:39:33;55.03;;;34.30;;
3274;SDS011;1649;53.672;10.064;2023-09-12T04:41:59;55.60;;;33.50;;
3274;SDS011;1649;53.672;10.064;2023-09-12T04:44:24;52.97;;;33.37;;
3274;SDS011;1649;53.672;10.064;2023-09-12T04:46:50;51.53;;;33.47;;
3274;SDS011;1649;53.672;10.064;2023-09-12T04:49:15;49.90;;;31.83;;
3274;SDS011;1649;53.672;10.064;2023-09-12T04:51:41;60.47;;;35.77;;
3274;SDS011;1649;53.672;10.064;2023-09-12T04:54:07;59.10;;;34.57;;
3274;SDS011;1649;53.672;10.064;2023-09-12T04:56:33;61.60;;;34.83;;
3274;SDS011;1649;53.672;10.064;2023-09-12T04:58:58;60.07;;;35.37;;
3274;SDS011;1649;53.672;10.064;2023-09-12T05:01:24;59.73;;;36.77;;
3274;SDS011;1649;53.672;10.064;2023-09-12T05:03:51;62.40;;;37.70;;
3274;SDS011;1649;53.672;10.064;2023-09-12T05:06:16;69.50;;;36.03;;
3274;SDS011;1649;53.672;10.064;2023-09-12T05:08:42;65.40;;;37.00;;
3274;SDS011;1649;53.672;10.064;2023-09-12T05:11:08;71.30;;;39.77;;
3274;SDS011;1649;53.672;10.064;2023-09-12T05:13:33;63.97;;;37.77;;
3274;SDS011;1649;53.672;10.064;2023-09-12T05:15:59;65.60;;;40.53;;
3274;SDS011;1649;53.672;10.064;2023-09-12T05:18:24;77.97;;;44.17;;
3274;SDS011;1649;53.672;10.064;2023-09-12T05:20:50;70.70;;;42.10;;
3274;SDS011;1649;53.672;10.064;2023-09-12T05:23:15;67.03;;;37.60;;
3274;SDS011;1649;53.672;10.064;2023-09-12T05:25:41;72.13;;;43.77;;
3274;SDS011;1649;53.672;10.064;2023-09-12T05:28:06;81.87;;;44.17;;
3274;SDS011;1649;53.672;10.064;2023-09-12T05:30:32;83.60;;;46.47;;
3274;SDS011;1649;53.672;10.064;2023-09-12T05:32:57;83.00;;;44.80;;
3274;SDS011;1649;53.672;10.064;2023-09-12T05:35:23;94.53;;;46.93;;
3274;SDS011;1649;53.672;10.064;2023-09-12T05:37:49;87.13;;;45.27;;
3274;SDS011;1649;53.672;10.064;2023-09-12T05:40:16;88.93;;;48.97;;
3274;SDS011;1649;53.672;10.064;2023-09-12T05:42:42;92.80;;;47.10;;
3274;SDS011;1649;53.672;10.064;2023-09-12T05:45:08;97.90;;;49.93;;
3274;SDS011;1649;53.672;10.064;2023-09-12T05:47:33;97.23;;;46.80;;
3274;SDS011;1649;53.672;10.064;2023-09-12T05:49:59;103.97;;;49.90;;
3274;SDS011;1649;53.672;10.064;2023-09-12T05:52:25;106.20;;;50.00;;
3274;SDS011;1649;53.672;10.064;2023-09-12T05:54:51;108.93;;;51.73;;
3274;SDS011;1649;53.672;10.064;2023-09-12T05:57:16;109.10;;;51.80;;
3274;SDS011;1649;53.672;10.064;2023-09-12T05:59:42;89.53;;;43.70;;
3274;SDS011;1649;53.672;10.064;2023-09-12T06:02:07;84.27;;;43.63;;
3274;SDS011;1649;53.672;10.064;2023-09-12T06:04:36;78.47;;;42.63;;
3274;SDS011;1649;53.672;10.064;2023-09-12T06:07:02;95.70;;;48.73;;
3274;SDS011;1649;53.672;10.064;2023-09-12T06:09:28;83.60;;;42.97;;
3274;SDS011;1649;53.672;10.064;2023-09-12T06:11:53;79.40;;;40.33;;
3274;SDS011;1649;53.672;10.064;2023-09-12T06:14:19;91.00;;;46.43;;
3274;SDS011;1649;53.672;10.064;2023-09-12T06:16:44;86.67;;;43.60;;
3274;SDS011;1649;53.672;10.064;2023-09-12T06:19:10;83.97;;;46.93;;
3274;SDS011;1649;53.672;10.064;2023-09-12T06:21:35;77.57;;;42.57;;
3274;SDS011;1649;53.672;10.064;2023-09-12T06:24:08;76.60;;;42.90;;
3274;SDS011;1649;53.672;10.064;2023-09-12T06:26:33;72.20;;;41.73;;
3274;SDS011;1649;53.672;10.064;2023-09-12T06:28:59;76.00;;;43.10;;
3274;SDS011;1649;53.672;10.064;2023-09-12T06:31:24;70.00;;;41.47;;
3274;SDS011;1649;53.672;10.064;2023-09-12T06:33:50;83.73;;;43.63;;
3274;SDS011;1649;53.672;10.064;2023-09-12T06:36:15;76.90;;;46.10;;
3274;SDS011;1649;53.672;10.064;2023-09-12T06:38:41;76.97;;;43.20;;
3274;SDS011;1649;53.672;10.064;2023-09-12T06:41:06;78.07;;;42.87;;
3274;SDS011;1649;53.672;10.064;2023-09-12T06:43:32;82.80;;;45.67;;
3274;SDS011;1649;53.672;10.064;2023-09-12T06:45:57;72.63;;;39.83;;
3274;SDS011;1649;53.672;10.064;2023-09-12T06:48:22;82.40;;;44.70;;
3274;SDS011;1649;53.672;10.064;2023-09-12T06:50:48;75.37;;;44.20;;
3274;SDS011;1649;53.672;10.064;2023-09-12T06:53:15;72.17;;;41.80;;
3274;SDS011;1649;53.672;10.064;2023-09-12T06:55:40;76.77;;;44.97;;
3274;SDS011;1649;53.672;10.064;2023-09-12T06:58:06;74.50;;;41.87;;
3274;SDS011;1649;53.672;10.064;2023-09-12T07:00:32;77.70;;;42.33;;
3274;SDS011;1649;53.672;10.064;2023-09-12T07:02:58;82.10;;;45.37;;
3274;SDS011;1649;53.672;10.064;2023-09-12T07:05:24;74.70;;;43.33;;
3274;SDS011;1649;53.672;10.064;2023-09-12T07:07:49;81.73;;;42.37;;
3274;SDS011;1649;53.672;10.064;2023-09-12T07:10:15;76.30;;;41.97;;
3274;SDS011;1649;53.672;10.064;2023-09-12T07:12:40;73.87;;;42.63;;
3274;SDS011;1649;53.672;10.064;2023-09-12T07:15:06;72.20;;;39.57;;
3274;SDS011;1649;53.672;10.064;2023-09-12T07:17:31;67.97;;;39.93;;
3274;SDS011;1649;53.672;10.064;2023-09-12T07:19:57;65.03;;;40.20;;
3274;SDS011;1649;53.672;10.064;2023-09-12T07:22:22;61.93;;;37.23;;
3274;SDS011;1649;53.672;10.064;2023-09-12T07:24:48;61.57;;;38.10;;
3274;SDS011;1649;53.672;10.064;2023-09-12T07:27:13;60.50;;;36.37;;
3274;SDS011;1649;53.672;10.064;2023-09-12T07:29:39;65.90;;;39.53;;
3274;SDS011;1649;53.672;10.064;2023-09-12T07:32:04;68.57;;;38.70;;
3274;SDS011;1649;53.672;10.064;2023-09-12T07:34:30;66.40;;;37.63;;
3274;SDS011;1649;53.672;10.064;2023-09-12T07:36:55;59.13;;;39.37;;
3274;SDS011;1649;53.672;10.064;2023-09-12T07:39:21;58.23;;;37.40;;
3274;SDS011;1649;53.672;10.064;2023-09-12T07:41:46;64.03;;;38.40;;
3274;SDS011;1649;53.672;10.064;2023-09-12T07:44:12;63.77;;;35.83;;
3274;SDS011;1649;53.672;10.064;2023-09-12T07:46:40;59.47;;;36.17;;
3274;SDS011;1649;53.672;10.064;2023-09-12T07:49:06;55.57;;;34.87;;
3274;SDS011;1649;53.672;10.064;2023-09-12T07:51:33;57.97;;;34.50;;
3274;SDS011;1649;53.672;10.064;2023-09-12T07:53:58;50.33;;;32.73;;
3274;SDS011;1649;53.672;10.064;2023-09-12T07:56:24;53.37;;;34.57;;
3274;SDS011;1649;53.672;10.064;2023-09-12T07:58:49;51.20;;;32.40;;
3274;SDS011;1649;53.672;10.064;2023-09-12T08:01:15;52.27;;;34.30;;
3274;SDS011;1649;53.672;10.064;2023-09-12T08:03:42;51.37;;;34.40;;
3274;SDS011;1649;53.672;10.064;2023-09-12T08:06:07;58.33;;;35.07;;
3274;SDS011;1649;53.672;10.064;2023-09-12T08:08:33;54.27;;;35.57;;
3274;SDS011;1649;53.672;10.064;2023-09-12T08:10:59;51.40;;;34.10;;
3274;SDS011;1649;53.672;10.064;2023-09-12T08:13:26;48.37;;;31.43;;
3274;SDS011;1649;53.672;10.064;2023-09-12T08:15:55;50.80;;;35.23;;
3274;SDS011;1649;53.672;10.064;2023-09-12T08:18:22;46.57;;;32.60;;
3274;SDS011;1649;53.672;10.064;2023-09-12T08:20:52;45.27;;;30.40;;
3274;SDS011;1649;53.672;10.064;2023-09-12T08:23:17;39.13;;;27.80;;
3274;SDS011;1649;53.672;10.064;2023-09-12T08:25:43;47.00;;;30.23;;
3274;SDS011;1649;53.672;10.064;2023-09-12T08:28:08;43.80;;;29.37;;
3274;SDS011;1649;53.672;10.064;2023-09-12T08:30:34;39.13;;;27.17;;
3274;SDS011;1649;53.672;10.064;2023-09-12T08:32:59;35.30;;;25.97;;
3274;SDS011;1649;53.672;10.064;2023-09-12T08:35:28;42.80;;;28.90;;
3274;SDS011;1649;53.672;10.064;2023-09-12T08:37:53;39.47;;;28.57;;
3274;SDS011;1649;53.672;10.064;2023-09-12T08:40:19;39.70;;;27.83;;
3274;SDS011;1649;53.672;10.064;2023-09-12T08:42:44;39.60;;;27.07;;
3274;SDS011;1649;53.672;10.064;2023-09-12T08:45:17;39.00;;;26.50;;
3274;SDS011;1649;53.672;10.064;2023-09-12T08:47:44;40.97;;;28.27;;
3274;SDS011;1649;53.672;10.064;2023-09-12T08:50:11;31.03;;;23.80;;
3274;SDS011;1649;53.672;10.064;2023-09-12T08:52:38;29.70;;;22.97;;
3274;SDS011;1649;53.672;10.064;2023-09-12T08:55:07;36.50;;;26.17;;
3274;SDS011;1649;53.672;10.064;2023-09-12T08:57:35;34.77;;;24.10;;
3274;SDS011;1649;53.672;10.064;2023-09-12T09:00:02;38.27;;;25.50;;
3274;SDS011;1649;53.672;10.064;2023-09-12T09:02:31;39.10;;;25.33;;
3274;SDS011;1649;53.672;10.064;2023-09-12T09:04:58;33.93;;;23.93;;
3274;SDS011;1649;53.672;10.064;2023-09-12T09:07:26;33.67;;;23.23;;
3274;SDS011;1649;53.672;10.064;2023-09-12T09:09:53;33.57;;;24.90;;
3274;SDS011;1649;53.672;10.064;2023-09-12T09:12:21;33.97;;;24.70;;
3274;SDS011;1649;53.672;10.064;2023-09-12T09:14:46;31.30;;;23.63;;
3274;SDS011;1649;53.672;10.064;2023-09-12T09:17:12;31.93;;;22.50;;
3274;SDS011;1649;53.672;10.064;2023-09-12T09:19:42;29.60;;;21.13;;
3274;SDS011;1649;53.672;10.064;2023-09-12T09:22:09;32.00;;;24.10;;
3274;SDS011;1649;53.672;10.064;2023-09-12T09:24:35;27.80;;;21.50;;
3274;SDS011;1649;53.672;10.064;2023-09-12T09:27:00;28.03;;;21.97;;
3274;SDS011;1649;53.672;10.064;2023-09-12T09:29:27;30.43;;;22.40;;
3274;SDS011;1649;53.672;10.064;2023-09-12T09:31:58;26.43;;;20.53;;
3274;SDS011;1649;53.672;10.064;2023-09-12T09:34:25;26.87;;;21.10;;
3274;SDS011;1649;53.672;10.064;2023-09-12T09:36:54;28.30;;;20.03;;
3274;SDS011;1649;53.672;10.064;2023-09-12T09:39:25;24.00;;;19.43;;
3274;SDS011;1649;53.672;10.064;2023-09-12T09:41:53;20.30;;;16.00;;
3274;SDS011;1649;53.672;10.064;2023-09-12T09:44:23;20.60;;;16.83;;
3274;SDS011;1649;53.672;10.064;2023-09-12T09:46:53;20.50;;;16.67;;
3274;SDS011;1649;53.672;10.064;2023-09-12T09:49:22;21.50;;;17.40;;
3274;SDS011;1649;53.672;10.064;2023-09-12T09:51:48;21.50;;;17.80;;
3274;SDS011;1649;53.672;10.064;2023-09-12T09:54:14;22.27;;;17.90;;
3274;SDS011;1649;53.672;10.064;2023-09-12T09:56:46;20.43;;;17.80;;
3274;SDS011;1649;53.672;10.064;2023-09-12T09:59:16;19.70;;;17.27;;
3274;SDS011;1649;53.672;10.064;2023-09-12T10:01:43;19.53;;;17.07;;
3274;SDS011;1649;53.672;10.064;2023-09-12T10:04:10;21.03;;;16.93;;
3274;SDS011;1649;53.672;10.064;2023-09-12T10:06:36;20.17;;;16.50;;
3274;SDS011;1649;53.672;10.064;2023-09-12T10:09:04;20.90;;;17.30;;
3274;SDS011;1649;53.672;10.064;2023-09-12T10:11:32;20.50;;;17.07;;
3274;SDS011;1649;53.672;10.064;2023-09-12T10:14:00;21.60;;;17.30;;
3274;SDS011;1649;53.672;10.064;2023-09-12T10:16:30;19.30;;;16.13;;
3274;SDS011;1649;53.672;10.064;2023-09-12T10:19:20;21.60;;;16.60;;
3274;SDS011;1649;53.672;10.064;2023-09-12T10:21:49;21.87;;;17.37;;
3274;SDS011;1649;53.672;10.064;2023-09-12T10:24:17;20.90;;;16.50;;
3274;SDS011;1649;53.672;10.064;2023-09-12T10:26:46;22.33;;;16.53;;
3274;SDS011;1649;53.672;10.064;2023-09-12T10:29:13;22.17;;;17.30;;
3274;SDS011;1649;53.672;10.064;2023-09-12T10:31:40;23.83;;;17.60;;
3274;SDS011;1649;53.672;10.064;2023-09-12T10:34:06;24.83;;;18.30;;
3274;SDS011;1649;53.672;10.064;2023-09-12T10:36:36;22.70;;;18.23;;
3274;SDS011;1649;53.672;10.064;2023-09-12T10:39:04;23.40;;;17.90;;
3274;SDS011;1649;53.672;10.064;2023-09-12T10:41:30;24.37;;;18.00;;
3274;SDS011;1649;53.672;10.064;2023-09-12T10:43:57;25.83;;;18.23;;
3274;SDS011;1649;53.672;10.064;2023-09-12T10:46:24;23.70;;;18.50;;
3274;SDS011;1649;53.672;10.064;2023-09-12T10:48:50;24.37;;;18.63;;
3274;SDS011;1649;53.672;10.064;2023-09-12T10:51:16;23.00;;;18.10;;
3274;SDS011;1649;53.672;10.064;2023-09-12T10:53:46;24.07;;;18.60;;
3274;SDS011;1649;53.672;10.064;2023-09-12T10:56:16;22.27;;;17.60;;
3274;SDS011;1649;53.672;10.064;2023-09-12T11:01:30;25.50;;;19.53;;
3274;SDS011;1649;53.672;10.064;2023-09-12T11:03:56;26.33;;;19.50;;
3274;SDS011;1649;53.672;10.064;2023-09-12T11:06:23;23.97;;;19.13;;
3274;SDS011;1649;53.672;10.064;2023-09-12T11:09:15;22.03;;;18.00;;
3274;SDS011;1649;53.672;10.064;2023-09-12T11:11:42;24.60;;;18.10;;
3274;SDS011;1649;53.672;10.064;2023-09-12T11:14:11;26.30;;;20.63;;
3274;SDS011;1649;53.672;10.064;2023-09-12T11:16:37;25.73;;;20.77;;
3274;SDS011;1649;53.672;10.064;2023-09-12T11:21:46;29.30;;;20.77;;
3274;SDS011;1649;53.672;10.064;2023-09-12T11:24:13;26.33;;;20.83;;
3274;SDS011;1649;53.672;10.064;2023-09-12T11:29:35;31.63;;;21.40;;
3274;SDS011;1649;53.672;10.064;2023-09-12T11:32:03;27.57;;;20.20;;
3274;SDS011;1649;53.672;10.064;2023-09-12T11:34:30;26.53;;;20.33;;
3274;SDS011;1649;53.672;10.064;2023-09-12T11:37:02;29.10;;;20.80;;
3274;SDS011;1649;53.672;10.064;2023-09-12T11:39:30;27.33;;;21.23;;
3274;SDS011;1649;53.672;10.064;2023-09-12T11:41:58;27.40;;;20.03;;
3274;SDS011;1649;53.672;10.064;2023-09-12T11:44:24;29.03;;;20.60;;
3274;SDS011;1649;53.672;10.064;2023-09-12T11:46:51;25.90;;;20.73;;
3274;SDS011;1649;53.672;10.064;2023-09-12T11:49:17;26.10;;;20.73;;
3274;SDS011;1649;53.672;10.064;2023-09-12T11:51:50;25.20;;;19.17;;
3274;SDS011;1649;53.672;10.064;2023-09-12T11:54:18;27.73;;;20.50;;
3274;SDS011;1649;53.672;10.064;2023-09-12T11:56:46;26.73;;;19.60;;
3274;SDS011;1649;53.672;10.064;2023-09-12T11:59:13;24.90;;;18.80;;
3274;SDS011;1649;53.672;10.064;2023-09-12T12:01:38;29.37;;;21.17;;
3274;SDS011;1649;53.672;10.064;2023-09-12T12:04:04;25.40;;;18.90;;
3274;SDS011;1649;53.672;10.064;2023-09-12T12:06:31;24.70;;;20.00;;
3274;SDS011;1649;53.672;10.064;2023-09-12T12:08:57;26.77;;;19.97;;
3274;SDS011;1649;53.672;10.064;2023-09-12T12:11:27;26.63;;;20.23;;
3274;SDS011;1649;53.672;10.064;2023-09-12T12:13:53;28.27;;;21.43;;
3274;SDS011;1649;53.672;10.064;2023-09-12T12:16:18;25.00;;;19.73;;
3274;SDS011;1649;53.672;10.064;2023-09-12T12:18:44;26.47;;;19.90;;
3274;SDS011;1649;53.672;10.064;2023-09-12T12:21:09;26.43;;;20.70;;
3274;SDS011;1649;53.672;10.064;2023-09-12T12:23:35;27.70;;;20.40;;
3274;SDS011;1649;53.672;10.064;2023-09-12T12:26:07;27.90;;;22.13;;
3274;SDS011;1649;53.672;10.064;2023-09-12T12:28:34;29.87;;;21.37;;
3274;SDS011;1649;53.672;10.064;2023-09-12T12:31:00;30.67;;;23.03;;
3274;SDS011;1649;53.672;10.064;2023-09-12T12:33:26;29.27;;;21.90;;
3274;SDS011;1649;53.672;10.064;2023-09-12T12:36:04;36.50;;;24.27;;
3274;SDS011;1649;53.672;10.064;2023-09-12T12:38:36;32.30;;;23.13;;
3274;SDS011;1649;53.672;10.064;2023-09-12T12:41:04;32.23;;;23.53;;
3274;SDS011;1649;53.672;10.064;2023-09-12T12:43:30;30.73;;;23.43;;
3274;SDS011;1649;53.672;10.064;2023-09-12T12:45:56;37.73;;;26.10;;
3274;SDS011;1649;53.672;10.064;2023-09-12T12:48:29;38.47;;;27.17;;
3274;SDS011;1649;53.672;10.064;2023-09-12T12:50:56;35.87;;;26.60;;
3274;SDS011;1649;53.672;10.064;2023-09-12T12:53:40;39.50;;;28.70;;
3274;SDS011;1649;53.672;10.064;2023-09-12T12:56:07;35.80;;;26.87;;
3274;SDS011;1649;53.672;10.064;2023-09-12T12:58:33;37.10;;;26.30;;
3274;SDS011;1649;53.672;10.064;2023-09-12T13:01:00;38.57;;;27.60;;
3274;SDS011;1649;53.672;10.064;2023-09-12T13:03:25;33.17;;;24.63;;
3274;SDS011;1649;53.672;10.064;2023-09-12T13:05:51;35.10;;;25.70;;
3274;SDS011;1649;53.672;10.064;2023-09-12T13:08:16;32.97;;;23.90;;
3274;SDS011;1649;53.672;10.064;2023-09-12T13:10:43;33.27;;;24.20;;
3274;SDS011;1649;53.672;10.064;2023-09-12T13:13:08;34.33;;;24.50;;
3274;SDS011;1649;53.672;10.064;2023-09-12T13:15:34;34.00;;;26.00;;
3274;SDS011;1649;53.672;10.064;2023-09-12T13:18:00;32.63;;;26.10;;
3274;SDS011;1649;53.672;10.064;2023-09-12T13:20:25;34.13;;;24.67;;
3274;SDS011;1649;53.672;10.064;2023-09-12T13:22:51;31.57;;;24.77;;
3274;SDS011;1649;53.672;10.064;2023-09-12T13:25:16;31.40;;;24.37;;
3274;SDS011;1649;53.672;10.064;2023-09-12T13:27:42;27.50;;;22.70;;
3274;SDS011;1649;53.672;10.064;2023-09-12T13:30:07;30.13;;;22.10;;
3274;SDS011;1649;53.672;10.064;2023-09-12T13:32:33;29.83;;;23.97;;
3274;SDS011;1649;53.672;10.064;2023-09-12T13:34:59;30.33;;;23.53;;
3274;SDS011;1649;53.672;10.064;2023-09-12T13:37:24;27.00;;;21.63;;
3274;SDS011;1649;53.672;10.064;2023-09-12T13:39:52;31.83;;;23.77;;
3274;SDS011;1649;53.672;10.064;2023-09-12T13:42:18;28.50;;;21.70;;
3274;SDS011;1649;53.672;10.064;2023-09-12T13:44:44;27.80;;;21.20;;
3274;SDS011;1649;53.672;10.064;2023-09-12T13:47:10;25.60;;;20.27;;
3274;SDS011;1649;53.672;10.064;2023-09-12T13:49:35;24.70;;;18.57;;
3274;SDS011;1649;53.672;10.064;2023-09-12T13:52:01;24.40;;;19.17;;
3274;SDS011;1649;53.672;10.064;2023-09-12T13:54:27;21.20;;;16.90;;
3274;SDS011;1649;53.672;10.064;2023-09-12T13:56:52;24.10;;;20.70;;
3274;SDS011;1649;53.672;10.064;2023-09-12T13:59:18;25.20;;;18.83;;
3274;SDS011;1649;53.672;10.064;2023-09-12T14:01:45;24.47;;;19.10;;
3274;SDS011;1649;53.672;10.064;2023-09-12T14:04:11;23.77;;;18.27;;
3274;SDS011;1649;53.672;10.064;2023-09-12T14:06:38;26.00;;;19.10;;
3274;SDS011;1649;53.672;10.064;2023-09-12T14:09:03;24.87;;;18.33;;
3274;SDS011;1649;53.672;10.064;2023-09-12T14:11:29;22.87;;;18.37;;
3274;SDS011;1649;53.672;10.064;2023-09-12T14:13:55;22.63;;;18.40;;
3274;SDS011;1649;53.672;10.064;2023-09-12T14:16:20;22.30;;;18.40;;
3274;SDS011;1649;53.672;10.064;2023-09-12T14:18:45;23.50;;;18.50;;
3274;SDS011;1649;53.672;10.064;2023-09-12T14:21:11;23.10;;;18.70;;
3274;SDS011;1649;53.672;10.064;2023-09-12T14:23:36;25.93;;;20.60;;
3274;SDS011;1649;53.672;10.064;2023-09-12T14:26:02;28.43;;;21.50;;
3274;SDS011;1649;53.672;10.064;2023-09-12T14:28:27;26.63;;;21.37;;
3274;SDS011;1649;53.672;10.064;2023-09-12T14:30:53;26.90;;;19.53;;
3274;SDS011;1649;53.672;10.064;2023-09-12T14:33:19;26.63;;;20.90;;
3274;SDS011;1649;53.672;10.064;2023-09-12T14:35:45;29.80;;;21.60;;
3274;SDS011;1649;53.672;10.064;2023-09-12T14:38:12;29.77;;;22.43;;
3274;SDS011;1649;53.672;10.064;2023-09-12T14:40:37;26.40;;;21.50;;